Time;durP1;ratioP1;P1;durP2;ratioP2;P2;SDS_P1;SDS_P2;PMS_P1;PMS_P2;Temp;Humidity;BMP_temperature;BMP_pressure;BME280_temperature;BME280_humidity;BME280_pressure;Samples;Min_cycle;Max_cycle;Signal;HPM_P1;HPM_P2
2021/03/20 00:00:46;;;;;;;9.73;7.43;;;;;;;-0.43;80.01;101446.72;5012953;28;20037;-74
2021/03/20 00:03:12;;;;;;;10.25;7.57;;;;;;;-0.49;79.33;101449.53;5011743;28;20129;-74
2021/03/20 00:05:38;;;;;;;9.55;7.13;;;;;;;-0.54;80.38;101450.63;5011859;28;20069;-74
2021/03/20 00:08:05;;;;;;;10.70;8.38;;;;;;;-0.60;79.75;101443.88;5011113;28;20029;-75
2021/03/20 00:10:31;;;;;;;10.75;7.60;;;;;;;-0.65;79.93;101445.81;5019396;28;20091;-74
2021/03/20 00:12:57;;;;;;;8.25;5.97;;;;;;;-0.65;80.61;101446.66;5003519;28;20037;-74
2021/03/20 00:15:25;;;;;;;8.82;6.55;;;;;;;-0.65;80.04;101448.41;5004498;28;20034;-74
2021/03/20 00:17:51;;;;;;;9.00;5.50;;;;;;;-0.62;79.23;101439.66;5009683;28;20033;-74
2021/03/20 00:20:22;;;;;;;9.85;5.97;;;;;;;-0.69;79.85;101439.91;5009918;28;20506;-74
2021/03/20 00:22:47;;;;;;;;;;;;;;;-0.78;80.20;101435.03;5008346;28;20053;-72
2021/03/20 00:25:13;;;;;;;9.20;6.45;;;;;;;-0.83;80.33;101433.50;5010565;28;20027;-74
2021/03/20 00:27:38;;;;;;;8.82;6.80;;;;;;;-0.84;81.23;101439.59;5011160;28;20105;-74
2021/03/20 00:30:06;;;;;;;8.90;5.93;;;;;;;-0.74;81.02;101431.44;5016039;28;20050;-72
2021/03/20 00:32:31;;;;;;;6.55;5.03;;;;;;;-0.63;81.11;101435.38;5008248;28;20030;-72
2021/03/20 00:34:57;;;;;;;11.65;7.05;;;;;;;-0.69;80.46;101432.09;5008725;28;20590;-72
2021/03/20 00:37:22;;;;;;;9.43;6.43;;;;;;;-0.68;80.58;101436.38;5009849;28;20108;-72
2021/03/20 00:39:48;;;;;;;9.45;6.88;;;;;;;-0.62;79.25;101439.66;5016207;28;20061;-72
2021/03/20 00:42:13;;;;;;;9.00;5.88;;;;;;;-0.69;80.10;101437.31;5013477;28;20120;-72
2021/03/20 00:44:39;;;;;;;10.07;6.15;;;;;;;-0.69;79.96;101441.63;5008915;28;20037;-72
2021/03/20 00:47:05;;;;;;;8.43;5.68;;;;;;;-0.68;79.51;101446.78;5014444;28;20046;-72
2021/03/20 00:49:31;;;;;;;8.15;5.00;;;;;;;-0.66;79.68;101436.34;5010053;28;20044;-72
2021/03/20 00:51:56;;;;;;;5.38;4.03;;;;;;;-0.64;79.81;101439.72;5010180;28;20038;-72
2021/03/20 00:54:23;;;;;;;5.57;3.65;;;;;;;-0.59;80.37;101439.56;5015278;28;20034;-72
2021/03/20 00:56:49;;;;;;;6.18;3.85;;;;;;;-0.54;80.22;101440.22;5006855;28;20034;-72
2021/03/20 00:59:14;;;;;;;5.63;3.95;;;;;;;-0.52;79.51;101443.63;5008207;28;20037;-72
2021/03/20 01:01:39;;;;;;;5.75;3.92;;;;;;;-0.55;80.77;101449.78;5007456;28;20034;-72
2021/03/20 01:04:04;;;;;;;7.13;4.30;;;;;;;-0.58;80.73;101443.84;5007272;28;20100;-72
2021/03/20 01:06:30;;;;;;;5.88;3.92;;;;;;;-0.56;nan;101452.44;4997927;28;20034;-72
2021/03/20 01:08:57;;;;;;;5.55;3.72;;;;;;;-0.53;80.31;101442.75;5009257;28;20030;-72
2021/03/20 01:11:25;;;;;;;4.53;3.00;;;;;;;-0.48;79.31;101442.56;5008856;28;20506;-72
2021/03/20 01:13:51;;;;;;;10.55;5.22;;;;;;;-0.40;77.93;101442.31;5011684;28;20141;-72
2021/03/20 01:16:17;;;;;;;5.80;4.15;;;;;;;-0.46;78.65;101445.97;5015709;28;20038;-72
2021/03/20 01:18:43;;;;;;;7.00;4.00;;;;;;;-0.48;79.17;101446.03;5016652;28;20120;-72
2021/03/20 01:21:09;;;;;;;4.97;3.47;;;;;;;-0.53;79.01;101447.94;5013085;28;20447;-73
2021/03/20 01:23:35;;;;;;;4.95;3.38;;;;;;;-0.55;78.89;101447.19;5016676;28;20394;-72
2021/03/20 01:26:00;;;;;;;7.43;4.00;;;;;;;-0.61;78.52;101449.16;5018530;28;20046;-73
2021/03/20 01:28:32;;;;;;;6.38;4.47;;;;;;;-0.72;79.50;101457.34;5013876;28;21407;-73
2021/03/20 01:30:58;;;;;;;6.78;4.70;;;;;;;-0.73;78.77;101456.50;5014640;28;20095;-73
2021/03/20 01:33:23;;;;;;;6.43;4.05;;;;;;;-0.75;79.57;101462.66;5015263;28;20092;-73
2021/03/20 01:35:49;;;;;;;8.90;5.68;;;;;;;-0.65;77.63;101467.44;5009163;28;20034;-73
2021/03/20 01:38:15;;;;;;;6.40;4.30;;;;;;;-0.72;78.28;101470.31;5006687;28;20041;-73
2021/03/20 01:40:44;;;;;;;6.93;4.53;;;;;;;-0.75;78.21;101479.06;5013057;28;20033;-73
2021/03/20 01:43:13;;;;;;;6.80;3.70;;;;;;;-0.83;79.73;101473.31;5013610;28;20034;-73
2021/03/20 01:45:39;;;;;;;4.63;3.35;;;;;;;-0.88;81.44;101470.03;5010821;28;20033;-74
2021/03/20 01:48:32;;;;;;;5.80;3.65;;;;;;;-0.88;79.24;101472.66;5015362;28;20111;-73
2021/03/20 01:51:01;;;;;;;7.47;4.85;;;;;;;-0.92;78.94;101469.28;5010086;28;20495;-74
2021/03/20 01:53:36;;;;;;;6.80;4.00;;;;;;;-0.99;81.86;101475.59;5018713;28;20102;-74
2021/03/20 01:56:04;;;;;;;7.30;4.30;;;;;;;-1.10;82.03;101476.00;5005850;28;20115;-75
2021/03/20 01:58:31;;;;;;;6.55;4.20;;;;;;;-1.14;81.75;101479.59;5018806;28;20398;-73
2021/03/20 02:01:06;;;;;;;8.05;4.80;;;;;;;-1.11;81.06;101479.47;5005526;28;20037;-73
2021/03/20 02:03:32;;;;;;;8.00;5.15;;;;;;;-1.14;80.37;101486.53;5018971;28;20438;-73
2021/03/20 02:06:00;;;;;;;8.38;5.03;;;;;;;-1.18;81.28;101483.19;5008307;28;20056;-73
2021/03/20 02:08:25;;;;;;;7.13;4.78;;;;;;;-1.18;80.22;101485.78;5015414;28;20026;-74
2021/03/20 02:10:54;;;;;;;10.43;5.80;;;;;;;-1.18;80.44;101483.19;5011497;28;20049;-74
2021/03/20 02:13:38;;;;;;;9.05;5.50;;;;;;;-1.33;81.70;101491.50;5016490;28;20038;-73
2021/03/20 02:16:15;;;;;;;7.07;4.53;;;;;;;-1.33;81.57;101489.75;5012087;28;20065;-74
2021/03/20 02:19:16;;;;;;;8.35;5.57;;;;;;;-1.31;80.68;101498.34;5007861;28;20030;-73
2021/03/20 02:21:50;;;;;;;7.88;4.85;;;;;;;-1.28;79.72;101489.59;5008270;28;20426;-73
2021/03/20 02:24:39;;;;;;;7.60;4.32;;;;;;;-1.31;82.16;101484.53;5022711;28;20041;-74
2021/03/20 02:27:08;;;;;;;8.13;5.28;;;;;;;-1.28;81.44;101479.22;5012807;28;20078;-73
2021/03/20 02:30:02;;;;;;;6.40;4.32;;;;;;;-1.27;81.04;101486.09;5015684;28;20054;-73
2021/03/20 02:32:52;;;;;;;8.70;5.38;;;;;;;-1.25;80.82;101473.91;5019138;28;20735;-73
2021/03/20 02:35:47;;;;;;;6.47;4.35;;;;;;;-1.31;81.52;101487.97;5012177;28;20045;-73
2021/03/20 02:38:37;;;;;;;8.88;4.72;;;;;;;-1.30;80.63;101487.06;5011195;28;20062;-74
2021/03/20 02:41:09;;;;;;;7.93;4.40;;;;;;;-1.38;81.68;101483.00;5008351;28;20042;-74
2021/03/20 02:43:54;;;;;;;7.25;5.03;;;;;;;-1.55;81.83;101474.06;5017677;28;20037;-74
2021/03/20 02:46:26;;;;;;;6.40;4.28;;;;;;;-1.62;83.56;101469.13;5012676;28;20037;-74
2021/03/20 02:48:57;;;;;;;7.03;4.32;;;;;;;-1.62;82.54;101472.59;5011889;28;20042;-73
2021/03/20 02:51:32;;;;;;;7.18;4.85;;;;;;;-1.75;83.05;101472.13;5005769;28;20046;-73
2021/03/20 02:54:06;;;;;;;6.68;4.18;;;;;;;-1.81;83.46;101476.63;5004703;28;20518;-73
2021/03/20 02:56:42;;;;;;;9.25;5.90;;;;;;;-1.88;83.29;101472.53;5020125;28;20529;-73
2021/03/20 02:59:11;;;;;;;7.15;4.80;;;;;;;-1.86;83.36;101471.63;5023345;28;20037;-73
2021/03/20 03:01:40;;;;;;;7.53;4.97;;;;;;;-1.78;81.68;101473.97;5017047;28;20033;-74
2021/03/20 03:04:07;;;;;;;5.22;3.90;;;;;;;-1.80;82.64;101474.00;5011852;28;20079;-74
2021/03/20 03:07:05;;;;;;;7.72;4.97;;;;;;;-1.72;84.84;101487.59;5011197;28;20062;-73
2021/03/20 03:09:40;;;;;;;9.57;5.50;;;;;;;-1.57;82.09;101483.66;5011873;28;20058;-74
2021/03/20 03:12:15;;;;;;;7.95;5.22;;;;;;;-1.47;81.25;101491.97;5011884;28;20077;-74
2021/03/20 03:15:01;;;;;;;11.15;7.05;;;;;;;-1.36;81.49;101496.78;5022121;28;20064;-74
2021/03/20 03:17:28;;;;;;;6.65;4.60;;;;;;;-1.38;82.13;101495.97;5007553;28;20053;-74
2021/03/20 03:19:59;;;;;;;9.57;6.32;;;;;;;-1.33;80.86;101492.34;5014657;28;20038;-74
2021/03/20 03:22:35;;;;;;;10.27;6.95;;;;;;;-1.21;80.35;101485.06;5012891;28;20045;-74
2021/03/20 03:25:08;;;;;;;9.45;6.38;;;;;;;-1.14;79.99;101487.38;5004245;28;20537;-74
2021/03/20 03:27:36;;;;;;;7.50;4.95;;;;;;;-1.18;81.25;101490.13;5013941;28;20678;-74
2021/03/20 03:30:07;;;;;;;8.00;4.68;;;;;;;-1.17;80.91;101491.81;5010711;28;20092;-74
2021/03/20 03:32:36;;;;;;;7.05;4.78;;;;;;;-1.18;80.52;101487.53;5006642;28;20026;-74
2021/03/20 03:35:23;;;;;;;9.07;5.95;;;;;;;-1.18;80.22;101490.97;5009472;28;20034;-74
2021/03/20 03:38:06;;;;;;;8.70;4.68;;;;;;;-1.26;80.49;101493.00;5009273;28;20034;-74
2021/03/20 03:40:49;;;;;;;9.13;5.35;;;;;;;-1.40;81.85;101496.06;5010154;28;20030;-74
2021/03/20 03:43:17;;;;;;;7.25;5.47;;;;;;;-1.43;81.45;101503.06;5000420;28;20534;-74
2021/03/20 03:45:44;;;;;;;6.95;4.40;;;;;;;-1.42;80.93;101508.22;5012118;28;20029;-74
2021/03/20 03:48:10;;;;;;;5.82;3.85;;;;;;;-1.39;81.16;101518.50;5016567;28;20065;-74
2021/03/20 03:50:39;;;;;;;7.13;4.50;;;;;;;-1.41;81.48;101507.31;5009732;28;20087;-74
2021/03/20 03:53:07;;;;;;;10.25;4.57;;;;;;;-1.41;81.01;101498.69;5013316;28;20045;-74
2021/03/20 03:55:34;;;;;;;8.85;6.10;;;;;;;-1.42;80.94;101490.06;5010524;28;20043;-74
2021/03/20 03:58:28;;;;;;;7.72;5.07;;;;;;;-1.38;80.48;101486.47;5018830;28;20038;-74
2021/03/20 04:01:01;;;;;;;9.63;6.30;;;;;;;-1.28;80.04;101499.97;5011978;28;20168;-74
2021/03/20 04:03:49;;;;;;;11.25;6.45;;;;;;;-1.10;79.08;101499.38;5011166;28;20076;-74
2021/03/20 04:06:43;;;;;;;8.23;5.05;;;;;;;-1.12;79.31;101490.78;5008939;28;20398;-74
2021/03/20 04:09:17;;;;;;;7.00;4.68;;;;;;;-1.11;79.20;101492.47;5001558;28;20049;-74
2021/03/20 04:11:56;;;;;;;7.20;5.18;;;;;;;-1.25;79.89;101497.28;5010961;28;20112;-73
2021/03/20 04:14:39;;;;;;;8.75;5.10;;;;;;;-1.23;79.91;101498.06;5012018;28;20040;-74
2021/03/20 04:17:22;;;;;;;6.35;4.05;;;;;;;-1.25;80.44;101502.47;5010712;28;20091;-74
2021/03/20 04:20:22;;;;;;;6.40;4.30;;;;;;;-1.27;80.50;101506.00;5005541;28;20017;-73
2021/03/20 04:22:57;;;;;;;5.78;4.10;;;;;;;-1.27;79.91;101513.78;5008133;28;20099;-74
2021/03/20 04:25:41;;;;;;;6.22;4.18;;;;;;;-1.36;80.00;101509.75;5008184;28;20390;-73
2021/03/20 04:28:23;;;;;;;7.35;4.90;;;;;;;-1.37;79.95;101510.66;5010587;28;20029;-75
2021/03/20 04:30:56;;;;;;;5.88;3.92;;;;;;;-1.37;80.33;101506.31;5012322;28;20052;-74
2021/03/20 04:33:26;;;;;;;6.80;4.32;;;;;;;-1.34;80.28;101513.16;5008672;28;20034;-74
2021/03/20 04:35:59;;;;;;;6.50;3.97;;;;;;;-1.35;80.00;101519.25;5006352;28;20068;-74
2021/03/20 04:40:58;;;;;;;6.25;4.28;;;;;;;-1.40;80.80;101537.56;4997327;28;20383;-70
2021/03/20 04:43:26;;;;;;;8.70;6.55;;;;;;;-1.41;80.08;101535.00;5009165;28;20042;-70
2021/03/20 04:46:01;;;;;;;7.47;4.70;;;;;;;-1.42;80.96;101541.94;5008303;28;20034;-71
2021/03/20 04:48:30;;;;;;;7.55;4.78;;;;;;;-1.38;80.71;101545.28;5003405;28;20509;-70
2021/03/20 04:51:00;;;;;;;6.93;4.15;;;;;;;-1.43;81.40;101545.44;5009319;28;20375;-70
2021/03/20 04:53:27;;;;;;;7.13;4.70;;;;;;;-1.47;81.52;101530.03;5013162;28;20033;-70
2021/03/20 04:56:00;;;;;;;5.78;4.25;;;;;;;-1.50;81.20;101524.03;5019005;28;20052;-70
2021/03/20 04:58:43;;;;;;;7.80;4.78;;;;;;;-1.55;82.10;101536.31;5018233;28;20441;-70
2021/03/20 05:01:15;;;;;;;8.40;5.18;;;;;;;-1.56;80.75;101541.53;5009661;28;20026;-70
2021/03/20 05:03:45;;;;;;;9.00;5.38;;;;;;;-1.61;81.46;101552.06;5024663;28;20033;-70
2021/03/20 05:06:13;;;;;;;5.68;4.00;;;;;;;-1.61;81.46;101546.88;5020026;28;20492;-68
2021/03/20 05:08:44;;;;;;;6.47;4.47;;;;;;;-1.71;83.10;101550.66;5026728;28;20041;-70
2021/03/20 05:11:09;;;;;;;5.35;3.92;;;;;;;-1.67;82.23;101551.41;5024903;28;20034;-70
2021/03/20 05:13:53;;;;;;;9.68;5.47;;;;;;;-1.68;81.85;101550.56;5034571;28;20183;-70
2021/03/20 05:16:19;;;;;;;8.20;5.65;;;;;;;-1.73;82.20;101549.84;5023846;28;20141;-71
2021/03/20 05:18:48;;;;;;;9.57;6.43;;;;;;;-1.65;81.80;101540.06;5029081;28;20112;-70
2021/03/20 05:21:17;;;;;;;10.65;6.93;;;;;;;-1.57;81.80;101532.91;5031337;28;20280;-70
2021/03/20 05:23:42;;;;;;;14.68;8.30;;;;;;;-1.50;81.41;101529.22;5028971;28;20036;-70
2021/03/20 05:26:07;;;;;;;12.02;7.53;;;;;;;-1.43;81.28;101531.59;5027347;28;20034;-70
2021/03/20 05:28:33;;;;;;;11.18;7.28;;;;;;;-1.39;80.62;101536.66;5029143;28;20034;-70
2021/03/20 05:31:01;;;;;;;11.30;8.05;;;;;;;-1.41;80.60;101545.38;5023978;28;20060;-70
2021/03/20 05:33:27;;;;;;;9.77;6.60;;;;;;;-1.43;81.54;101547.16;5026272;28;20128;-70
2021/03/20 05:35:52;;;;;;;13.43;8.70;;;;;;;-1.44;81.07;101545.50;5027833;28;20566;-70
2021/03/20 05:38:17;;;;;;;11.23;8.27;;;;;;;-1.40;80.77;101563.50;5023131;28;20029;-70
2021/03/20 05:40:43;;;;;;;12.05;8.13;;;;;;;-1.43;81.70;101565.34;5027085;28;20034;-70
2021/03/20 05:43:35;;;;;;;14.93;9.20;;;;;;;-1.36;81.18;101582.41;5028889;28;20034;-70
2021/03/20 05:46:15;;;;;;;11.18;7.78;;;;;;;-1.30;81.35;101590.00;5029041;28;20525;-70
2021/03/20 05:48:51;;;;;;;;;;;;;;;-1.31;81.36;101586.56;5023390;28;20049;-70
2021/03/20 05:51:40;;;;;;;13.02;8.25;;;;;;;-1.22;80.91;101576.75;5028267;28;19936;-70
2021/03/20 05:54:27;;;;;;;12.95;7.78;;;;;;;-1.18;81.02;101558.44;5022583;28;20136;-71
2021/03/20 05:57:14;;;;;;;13.40;7.72;;;;;;;-1.01;79.71;101549.25;5031843;28;20030;-70
2021/03/20 05:59:57;;;;;;;11.48;7.20;;;;;;;-1.05;80.21;101548.50;5030553;28;20034;-70
2021/03/20 06:02:50;;;;;;;10.35;6.40;;;;;;;-1.09;80.44;101552.13;5028247;28;20418;-70
2021/03/20 06:05:39;;;;;;;10.95;7.45;;;;;;;-1.03;79.67;101572.66;5026356;28;20029;-70
2021/03/20 06:08:29;;;;;;;8.20;5.53;;;;;;;-1.02;81.14;101578.72;5028047;28;20037;-70
2021/03/20 06:11:01;;;;;;;13.32;8.00;;;;;;;-0.89;79.99;101577.38;5034265;28;20425;-70
2021/03/20 06:13:39;;;;;;;10.98;7.32;;;;;;;-1.03;80.66;101588.22;5027889;28;20048;-70
2021/03/20 06:16:27;;;;;;;11.13;7.28;;;;;;;-1.06;80.41;101596.13;5024170;28;20064;-73
2021/03/20 06:19:11;;;;;;;9.10;6.55;;;;;;;-1.04;80.15;101602.13;5029298;28;20044;-70
2021/03/20 06:22:04;;;;;;;9.35;5.45;;;;;;;-0.95;80.59;101611.34;5031740;28;20034;-70
2021/03/20 06:25:00;;;;;;;6.57;4.80;;;;;;;-0.87;79.81;101625.75;5030126;28;20582;-71
2021/03/20 06:27:39;;;;;;;8.85;5.53;;;;;;;-0.83;79.45;101618.72;5029610;28;20068;-70
2021/03/20 06:30:27;;;;;;;5.90;4.07;;;;;;;-0.78;79.87;101623.78;5024570;28;20099;-71
2021/03/20 06:33:01;;;;;;;6.07;4.28;;;;;;;-0.74;80.05;101623.63;5028910;28;20136;-70
2021/03/20 06:35:26;;;;;;;6.90;4.32;;;;;;;-0.65;80.25;101620.69;5030250;28;20148;-70
2021/03/20 06:37:57;;;;;;;6.47;4.88;;;;;;;-0.56;79.59;101623.88;5019222;28;20034;-70
2021/03/20 06:41:18;;;;;;;7.90;5.40;;;;;;;-0.53;78.24;101628.97;5017485;28;20033;-71
2021/03/20 06:43:51;;;;;;;8.32;5.63;;;;;;;-0.59;78.62;101624.00;4940248;29;20443;-70
2021/03/20 06:46:21;;;;;;;8.40;5.25;;;;;;;-0.74;78.48;101621.03;5026502;28;20025;-71
2021/03/20 06:48:47;;;;;;;6.60;4.63;;;;;;;-0.77;79.74;101612.47;5016494;28;20034;-71
2021/03/20 06:51:14;;;;;;;5.88;4.20;;;;;;;-0.57;80.39;101617.84;5030795;28;20487;-70
2021/03/20 06:53:56;;;;;;;7.70;5.05;;;;;;;-0.20;79.26;101610.47;5030978;28;20040;-71
2021/03/20 06:56:21;;;;;;;8.05;4.80;;;;;;;0.65;78.20;101627.16;5024490;28;20510;-70
2021/03/20 06:58:46;;;;;;;4.70;3.33;;;;;;;1.18;73.32;101620.69;5029527;28;20045;-70
2021/03/20 07:01:24;;;;;;;5.07;3.33;;;;;;;1.41;76.30;101633.59;5026770;28;20397;-70
2021/03/20 07:03:58;;;;;;;5.65;3.88;;;;;;;1.34;72.57;101631.31;5028996;28;20053;-70
2021/03/20 07:06:51;;;;;;;5.80;3.97;;;;;;;1.40;76.18;101637.09;5029904;28;20397;-70
2021/03/20 07:09:16;;;;;;;5.18;3.75;;;;;;;1.48;77.21;101634.16;5021195;28;20494;-70
2021/03/20 07:12:01;;;;;;;6.00;3.75;;;;;;;1.52;74.67;101643.53;5032900;28;20356;-70
2021/03/20 07:14:44;;;;;;;6.13;4.47;;;;;;;1.62;71.20;101639.63;5025209;28;20121;-69
2021/03/20 07:17:27;;;;;;;5.90;4.28;;;;;;;1.94;74.06;101639.97;5024034;28;20106;-70
2021/03/20 07:20:14;;;;;;;6.38;4.50;;;;;;;2.45;74.43;101642.84;5024998;28;20034;-70
2021/03/20 07:22:45;;;;;;;6.47;4.43;;;;;;;2.80;73.69;101653.41;5030096;28;20052;-70
2021/03/20 07:25:25;;;;;;;5.78;3.75;;;;;;;3.88;67.89;101647.03;5025950;28;20409;-69
2021/03/20 07:27:55;;;;;;;5.43;3.70;;;;;;;4.72;67.15;101654.72;5030634;28;20697;-70
2021/03/20 07:30:49;;;;;;;5.50;3.67;;;;;;;5.66;70.21;101660.59;5025410;28;20094;-71
2021/03/20 07:33:43;;;;;;;5.70;3.55;;;;;;;6.28;60.13;101659.50;5023602;28;20037;-69
2021/03/20 07:36:36;;;;;;;4.38;2.60;;;;;;;6.27;58.44;101647.28;5029529;28;20490;-70
2021/03/20 07:39:24;;;;;;;4.90;3.20;;;;;;;6.26;52.37;101651.72;5025868;28;20044;-69
2021/03/20 07:41:59;;;;;;;5.57;4.07;;;;;;;6.64;52.58;101653.69;5029795;28;20038;-69
2021/03/20 07:44:27;;;;;;;6.40;4.68;;;;;;;6.35;52.85;101664.28;5025918;28;20033;-69
2021/03/20 07:46:53;;;;;;;5.05;3.05;;;;;;;6.50;54.88;101670.34;5032670;28;20041;-69
2021/03/20 07:49:32;;;;;;;5.10;2.80;;;;;;;6.75;47.31;101669.63;5024831;28;20308;-69
2021/03/20 07:52:01;;;;;;;3.15;2.30;;;;;;;6.66;50.60;101677.25;5028534;28;20033;-71
2021/03/20 07:54:31;;;;;;;3.70;2.38;;;;;;;6.73;48.97;101674.13;5024960;28;20053;-71
2021/03/20 07:57:11;;;;;;;2.63;1.80;;;;;;;6.74;48.36;101680.22;5028137;28;20033;-70
2021/03/20 07:59:48;;;;;;;3.37;2.60;;;;;;;6.69;45.37;101669.16;5027943;28;20106;-69
2021/03/20 08:02:30;;;;;;;3.83;2.20;;;;;;;7.48;45.27;101678.03;5025505;28;20570;-69
2021/03/20 08:05:25;;;;;;;2.80;1.77;;;;;;;7.41;42.16;101688.09;5029722;28;20073;-69
2021/03/20 08:07:53;;;;;;;3.03;2.00;;;;;;;7.70;41.80;101685.28;5029327;28;20122;-69
2021/03/20 08:10:27;;;;;;;2.92;1.83;;;;;;;8.02;40.68;101693.63;5031412;28;20056;-69
2021/03/20 08:13:00;;;;;;;2.97;2.05;;;;;;;7.87;39.48;101693.75;5029552;28;20034;-69
2021/03/20 08:15:33;;;;;;;2.92;2.00;;;;;;;8.05;40.59;101696.03;5013405;28;20037;-69
2021/03/20 08:18:06;;;;;;;4.13;2.20;;;;;;;7.48;39.84;101692.00;5027874;28;20026;-68
2021/03/20 08:20:31;;;;;;;2.97;1.90;;;;;;;7.92;40.70;101690.78;5032342;28;20037;-69
2021/03/20 08:23:20;;;;;;;4.20;2.00;;;;;;;8.63;39.46;101684.06;5038363;28;20612;-68
2021/03/20 08:25:55;;;;;;;3.08;2.10;;;;;;;8.86;38.75;101687.66;5022370;28;20064;-69
2021/03/20 08:28:46;;;;;;;3.00;1.70;;;;;;;8.49;36.29;101689.47;5029934;28;20072;-69
2021/03/20 08:31:28;;;;;;;3.03;1.70;;;;;;;8.46;36.34;101693.19;5030059;28;20527;-68
2021/03/20 08:34:00;;;;;;;2.00;1.40;;;;;;;8.19;36.35;101693.28;5027150;28;20033;-69
2021/03/20 08:36:56;;;;;;;2.67;1.60;;;;;;;8.27;35.07;101698.00;5029086;28;20041;-68
2021/03/20 08:39:52;;;;;;;3.20;1.70;;;;;;;7.87;35.19;101698.19;5024381;28;20033;-69
2021/03/20 08:42:26;;;;;;;3.28;1.98;;;;;;;8.17;34.42;101711.00;5022776;28;20033;-69
2021/03/20 08:45:02;;;;;;;2.88;1.50;;;;;;;7.56;36.71;101709.94;5029189;28;20033;-69
2021/03/20 08:47:33;;;;;;;3.13;1.63;;;;;;;7.47;33.84;101706.13;5023687;28;20042;-69
2021/03/20 08:50:18;;;;;;;3.33;1.77;;;;;;;7.15;33.88;101695.09;5017911;28;20033;-69
2021/03/20 08:53:02;;;;;;;2.20;1.50;;;;;;;6.27;35.82;101708.56;5029099;28;20030;-69
2021/03/20 08:55:42;;;;;;;3.42;1.70;;;;;;;6.15;37.06;101715.44;5023393;28;20478;-70
2021/03/20 08:58:23;;;;;;;2.47;1.50;;;;;;;6.29;37.65;101711.09;5029233;28;20033;-69
2021/03/20 09:01:21;;;;;;;3.42;1.60;;;;;;;6.00;37.41;101721.59;5023262;28;20543;-68
2021/03/20 09:03:53;;;;;;;2.70;1.30;;;;;;;5.92;37.29;101708.91;5004511;28;20416;-68
2021/03/20 09:06:22;;;;;;;4.20;1.70;;;;;;;5.65;36.98;101714.03;5023027;28;20045;-68
2021/03/20 09:08:51;;;;;;;2.28;1.30;;;;;;;5.52;36.37;101720.91;5026673;28;20107;-68
2021/03/20 09:11:23;;;;;;;2.83;1.40;;;;;;;5.48;36.46;101709.78;5029650;28;20520;-69
2021/03/20 09:13:54;;;;;;;1.73;1.30;;;;;;;5.14;37.75;101712.66;5027571;28;20038;-69
2021/03/20 09:16:39;;;;;;;2.23;1.30;;;;;;;5.06;35.27;101708.69;5028488;28;20029;-68
2021/03/20 09:19:07;;;;;;;2.78;1.35;;;;;;;5.08;37.38;101703.38;5025011;28;20037;-69
2021/03/20 09:21:37;;;;;;;3.25;1.45;;;;;;;5.42;36.36;101715.38;5027538;28;20034;-69
2021/03/20 09:24:19;;;;;;;2.70;1.50;;;;;;;5.37;36.87;101717.41;5025980;28;20516;-69
2021/03/20 09:26:48;;;;;;;1.77;1.20;;;;;;;5.94;38.54;101712.31;5023940;28;20381;-69
2021/03/20 09:29:26;;;;;;;2.22;1.38;;;;;;;6.78;34.34;101714.09;5028070;28;20045;-69
2021/03/20 09:31:54;;;;;;;1.75;1.13;;;;;;;6.96;35.28;101701.59;5024513;28;20064;-69
2021/03/20 09:34:36;;;;;;;2.17;1.30;;;;;;;7.72;33.26;101717.63;5027061;28;20044;-69
2021/03/20 09:37:05;;;;;;;3.00;1.50;;;;;;;8.15;30.80;101710.28;5029657;28;20111;-69
2021/03/20 09:39:40;;;;;;;2.15;1.20;;;;;;;8.67;33.10;101711.88;5032156;28;20059;-69
2021/03/20 09:42:24;;;;;;;1.23;1.00;;;;;;;8.91;30.90;101708.41;5025387;28;20128;-70
2021/03/20 09:44:51;;;;;;;2.50;1.00;;;;;;;9.33;32.13;101704.41;5029798;28;20030;-69
2021/03/20 09:47:31;;;;;;;2.10;1.20;;;;;;;9.03;31.23;101699.59;5032505;28;20591;-69
2021/03/20 09:50:27;;;;;;;1.88;1.20;;;;;;;9.71;28.88;101695.38;5027202;28;20115;-69
2021/03/20 09:53:07;;;;;;;2.83;1.30;;;;;;;9.08;29.29;101696.63;5029560;28;20025;-69
2021/03/20 09:55:43;;;;;;;1.38;0.80;;;;;;;8.06;32.71;101690.69;5025944;28;20042;-69
2021/03/20 09:58:20;;;;;;;1.98;1.08;;;;;;;8.41;32.65;101684.72;5023956;28;20064;-69
2021/03/20 10:00:51;;;;;;;2.22;1.20;;;;;;;8.00;30.96;101688.47;5032907;28;20033;-69
2021/03/20 10:03:44;;;;;;;1.90;1.20;;;;;;;8.25;30.20;101682.34;5034927;28;20038;-68
2021/03/20 10:06:29;;;;;;;1.75;1.00;;;;;;;8.25;31.25;101684.97;5022744;28;20304;-69
2021/03/20 10:09:20;;;;;;;1.70;1.17;;;;;;;7.52;30.35;101687.41;5032095;28;20049;-69
2021/03/20 10:11:52;;;;;;;3.08;1.10;;;;;;;7.08;33.08;101680.66;5031598;28;20223;-69
2021/03/20 10:14:31;;;;;;;2.03;1.15;;;;;;;7.01;33.70;101669.72;5034149;28;20061;-68
2021/03/20 10:17:18;;;;;;;2.45;1.20;;;;;;;7.74;29.45;101668.34;5030146;28;20053;-69
2021/03/20 10:19:49;;;;;;;2.00;1.15;;;;;;;7.26;31.01;101671.56;5020991;28;20068;-69
2021/03/20 10:22:28;;;;;;;2.65;0.90;;;;;;;6.78;31.76;101674.69;5028608;28;20033;-69
2021/03/20 10:24:55;;;;;;;2.22;1.38;;;;;;;7.05;32.76;101676.44;5029959;28;20120;-69
2021/03/20 10:27:27;;;;;;;1.65;1.17;;;;;;;6.72;31.81;101676.84;5028827;28;20121;-69
2021/03/20 10:29:52;;;;;;;2.15;0.98;;;;;;;6.49;31.04;101667.81;5025436;28;20049;-69
2021/03/20 10:32:21;;;;;;;1.35;0.82;;;;;;;6.22;32.56;101660.75;5033979;28;20033;-69
2021/03/20 10:34:53;;;;;;;2.45;1.45;;;;;;;6.49;31.59;101663.41;5021208;28;20117;-69
2021/03/20 10:37:22;;;;;;;2.00;1.40;;;;;;;6.73;30.80;101660.16;5031787;28;20108;-69
2021/03/20 10:40:01;;;;;;;2.03;1.20;;;;;;;5.83;31.40;101656.13;5025352;28;20037;-68
2021/03/20 10:42:32;;;;;;;2.88;1.38;;;;;;;6.09;32.04;101657.19;5038587;23;20049;-70
2021/03/20 10:45:01;;;;;;;3.00;1.63;;;;;;;6.20;34.02;101665.25;5030437;28;20033;-70
2021/03/20 10:47:34;;;;;;;3.05;1.80;;;;;;;6.41;32.87;101665.66;5030871;28;20033;-70
2021/03/20 10:50:14;;;;;;;1.88;1.20;;;;;;;6.24;32.14;101664.09;5019653;28;20037;-70
2021/03/20 10:52:42;;;;;;;1.98;1.27;;;;;;;6.49;31.36;101662.56;5029544;28;20071;-70
2021/03/20 10:55:22;;;;;;;4.43;1.42;;;;;;;6.44;30.12;101654.97;5031030;28;20051;-69
2021/03/20 10:57:49;;;;;;;2.97;1.60;;;;;;;6.24;30.75;101656.22;5030346;28;20022;-70
2021/03/20 11:00:29;;;;;;;3.53;1.45;;;;;;;6.26;31.51;101658.75;5025152;28;20037;-70
2021/03/20 11:03:14;;;;;;;2.30;1.13;;;;;;;5.73;28.72;101656.66;5030273;28;20034;-69
2021/03/20 11:05:42;;;;;;;2.83;1.25;;;;;;;5.66;30.20;101659.75;5029882;28;20075;-69
2021/03/20 11:08:12;;;;;;;1.40;0.98;;;;;;;5.59;31.31;101658.44;5026869;28;20034;-70
2021/03/20 11:10:41;;;;;;;2.45;1.17;;;;;;;5.54;30.53;101650.84;5021527;28;20030;-69
2021/03/20 11:13:20;;;;;;;3.33;1.10;;;;;;;5.28;30.89;101655.00;5025430;28;20045;-69
2021/03/20 11:15:51;;;;;;;1.75;1.00;;;;;;;5.80;30.60;101646.66;5024092;28;20038;-70
2021/03/20 11:18:23;;;;;;;1.90;1.17;;;;;;;5.56;31.60;101653.38;5025803;28;20369;-70
2021/03/20 11:20:49;;;;;;;1.92;1.13;;;;;;;5.80;31.11;101656.31;5024899;28;20112;-69
2021/03/20 11:23:35;;;;;;;1.92;1.05;;;;;;;5.85;31.40;101646.38;5027837;28;20105;-70
2021/03/20 11:26:26;;;;;;;2.17;1.10;;;;;;;6.11;30.01;101655.31;5023361;28;20239;-74
2021/03/20 11:28:53;;;;;;;2.03;1.20;;;;;;;6.00;30.06;101655.94;5029837;28;20391;-70
2021/03/20 11:31:21;;;;;;;2.92;1.35;;;;;;;5.82;27.85;101647.41;5026798;28;20026;-69
2021/03/20 11:33:48;;;;;;;3.38;1.42;;;;;;;5.72;29.69;101641.88;5021897;28;20026;-69
2021/03/20 11:36:19;;;;;;;2.67;1.30;;;;;;;5.72;28.31;101636.63;5029979;28;20525;-70
2021/03/20 11:38:46;;;;;;;;;;;;;;;5.61;29.10;101630.34;5029648;28;20095;-70
2021/03/20 11:41:11;;;;;;;2.83;1.40;;;;;;;5.89;29.71;101629.50;5029627;28;19917;-69
2021/03/20 11:44:00;;;;;;;2.30;1.30;;;;;;;6.09;28.69;101628.28;5029724;28;20045;-70
2021/03/20 11:46:29;;;;;;;2.42;1.30;;;;;;;5.82;26.90;101623.78;5029042;28;20916;-69
2021/03/20 11:48:58;;;;;;;2.95;1.60;;;;;;;6.04;28.87;101619.88;5029705;28;20038;-69
2021/03/20 11:51:28;;;;;;;1.50;1.10;;;;;;;6.30;28.85;101619.06;5029240;28;20079;-69
2021/03/20 11:53:58;;;;;;;2.92;1.20;;;;;;;6.07;28.51;101624.91;5028628;28;20033;-69
2021/03/20 11:56:33;;;;;;;2.45;1.00;;;;;;;6.02;28.64;101627.00;5027625;28;20120;-69
2021/03/20 11:59:33;;;;;;;1.98;1.10;;;;;;;5.96;30.22;101622.97;5023508;28;20083;-69
2021/03/20 12:01:59;;;;;;;2.30;1.40;;;;;;;6.13;28.98;101627.16;5023792;28;20444;-69
2021/03/20 12:04:28;;;;;;;2.10;1.38;;;;;;;6.16;29.95;101621.72;5029136;28;20056;-69
2021/03/20 12:07:17;;;;;;;2.03;1.30;;;;;;;6.03;31.75;101621.66;5029675;28;20450;-69